The Canyons, Utah
Current Conditions -  °F | °C
As of 7:35 PM on Thursday 20 Nov 2014 (Local Time) from K36U Reporting Station
Thunderstorm Thunderstorm  
Wind Chill: 23°   Ceiling: Unl
Heat Index: 23°   Visibility: 10mi
Dew Point: 16°   Wind: 0mph
Humidity: 74%   Direction: NA
Pressure: 30.04"   Gusts: NA
Location:  40.71°N, 111.53°W
Report Text: K36U 210235Z AUTO 00000KT 10SM TS CLR M05/M09 A3004 RMK AO2
Loading
Personal Weather Stations






























Interactive Weather Map New forecast layout! Learn more

10-Day Weather Forecast

Advertisements
Track Severe Weather on mobile